sensor_id;sensor_type;location;lat;lon;timestamp;P1;durP1;ratioP1;P2;durP2;ratioP2
39970;SDS011;35425;51.142;17.178;2023-03-01T00:00:39;20.88;;;16.80;;
39970;SDS011;35425;51.142;17.178;2023-03-01T00:03:06;21.55;;;16.00;;
39970;SDS011;35425;51.142;17.178;2023-03-01T00:05:32;21.77;;;16.70;;
39970;SDS011;35425;51.142;17.178;2023-03-01T00:07:59;22.60;;;16.35;;
39970;SDS011;35425;51.142;17.178;2023-03-01T00:10:25;18.33;;;15.93;;
39970;SDS011;35425;51.142;17.178;2023-03-01T00:12:52;19.35;;;15.40;;
39970;SDS011;35425;51.142;17.178;2023-03-01T00:15:19;22.55;;;16.75;;
39970;SDS011;35425;51.142;17.178;2023-03-01T00:17:45;20.08;;;15.82;;
39970;SDS011;35425;51.142;17.178;2023-03-01T00:20:12;19.95;;;16.33;;
39970;SDS011;35425;51.142;17.178;2023-03-01T00:22:38;19.90;;;15.75;;
39970;SDS011;35425;51.142;17.178;2023-03-01T00:25:05;21.38;;;16.17;;
39970;SDS011;35425;51.142;17.178;2023-03-01T00:27:32;22.20;;;17.25;;
39970;SDS011;35425;51.142;17.178;2023-03-01T00:29:58;19.35;;;16.08;;
39970;SDS011;35425;51.142;17.178;2023-03-01T00:32:25;21.88;;;16.80;;
39970;SDS011;35425;51.142;17.178;2023-03-01T00:34:52;20.55;;;16.10;;
39970;SDS011;35425;51.142;17.178;2023-03-01T00:37:21;18.25;;;15.65;;
39970;SDS011;35425;51.142;17.178;2023-03-01T00:39:48;19.38;;;15.38;;
39970;SDS011;35425;51.142;17.178;2023-03-01T00:42:14;21.98;;;16.55;;
39970;SDS011;35425;51.142;17.178;2023-03-01T00:44:41;20.70;;;16.42;;
39970;SDS011;35425;51.142;17.178;2023-03-01T00:47:08;19.67;;;16.00;;
39970;SDS011;35425;51.142;17.178;2023-03-01T00:49:35;21.08;;;16.17;;
39970;SDS011;35425;51.142;17.178;2023-03-01T00:52:01;22.00;;;17.10;;
39970;SDS011;35425;51.142;17.178;2023-03-01T00:54:27;22.05;;;16.05;;
39970;SDS011;35425;51.142;17.178;2023-03-01T00:56:54;20.95;;;16.25;;
39970;SDS011;35425;51.142;17.178;2023-03-01T00:59:20;21.95;;;15.93;;
39970;SDS011;35425;51.142;17.178;2023-03-01T01:01:47;18.35;;;15.60;;
39970;SDS011;35425;51.142;17.178;2023-03-01T01:04:13;19.55;;;15.98;;
39970;SDS011;35425;51.142;17.178;2023-03-01T01:06:41;21.02;;;16.40;;
39970;SDS011;35425;51.142;17.178;2023-03-01T01:09:09;18.85;;;15.48;;
39970;SDS011;35425;51.142;17.178;2023-03-01T01:11:44;20.15;;;15.88;;
39970;SDS011;35425;51.142;17.178;2023-03-01T01:14:10;19.75;;;15.15;;
39970;SDS011;35425;51.142;17.178;2023-03-01T01:16:37;19.42;;;15.80;;
39970;SDS011;35425;51.142;17.178;2023-03-01T01:19:03;20.85;;;15.80;;
39970;SDS011;35425;51.142;17.178;2023-03-01T01:21:30;21.17;;;15.93;;
39970;SDS011;35425;51.142;17.178;2023-03-01T01:23:57;19.00;;;14.95;;
39970;SDS011;35425;51.142;17.178;2023-03-01T01:26:25;18.13;;;14.73;;
39970;SDS011;35425;51.142;17.178;2023-03-01T01:28:52;18.83;;;14.60;;
39970;SDS011;35425;51.142;17.178;2023-03-01T01:31:19;19.38;;;15.25;;
39970;SDS011;35425;51.142;17.178;2023-03-01T01:33:45;17.88;;;14.90;;
39970;SDS011;35425;51.142;17.178;2023-03-01T01:36:12;17.73;;;14.55;;
39970;SDS011;35425;51.142;17.178;2023-03-01T01:38:39;19.52;;;15.30;;
39970;SDS011;35425;51.142;17.178;2023-03-01T01:41:05;18.40;;;15.13;;
39970;SDS011;35425;51.142;17.178;2023-03-01T01:43:36;19.25;;;14.73;;
39970;SDS011;35425;51.142;17.178;2023-03-01T01:48:43;18.27;;;14.25;;
39970;SDS011;35425;51.142;17.178;2023-03-01T01:51:11;17.33;;;13.77;;
39970;SDS011;35425;51.142;17.178;2023-03-01T01:53:38;19.33;;;14.65;;
39970;SDS011;35425;51.142;17.178;2023-03-01T01:56:06;17.92;;;14.07;;
39970;SDS011;35425;51.142;17.178;2023-03-01T01:58:33;17.92;;;14.32;;
39970;SDS011;35425;51.142;17.178;2023-03-01T02:01:00;17.40;;;14.25;;
39970;SDS011;35425;51.142;17.178;2023-03-01T02:03:29;17.65;;;13.55;;
39970;SDS011;35425;51.142;17.178;2023-03-01T02:08:45;17.80;;;14.30;;
39970;SDS011;35425;51.142;17.178;2023-03-01T02:11:13;19.02;;;14.88;;
39970;SDS011;35425;51.142;17.178;2023-03-01T02:13:41;18.60;;;15.02;;
39970;SDS011;35425;51.142;17.178;2023-03-01T02:16:08;17.67;;;14.40;;
39970;SDS011;35425;51.142;17.178;2023-03-01T02:18:35;17.23;;;13.50;;
39970;SDS011;35425;51.142;17.178;2023-03-01T02:23:43;17.00;;;14.03;;
39970;SDS011;35425;51.142;17.178;2023-03-01T02:28:42;17.67;;;14.38;;
39970;SDS011;35425;51.142;17.178;2023-03-01T02:31:09;17.23;;;13.43;;
39970;SDS011;35425;51.142;17.178;2023-03-01T02:33:55;18.60;;;14.35;;
39970;SDS011;35425;51.142;17.178;2023-03-01T02:36:24;17.02;;;13.77;;
39970;SDS011;35425;51.142;17.178;2023-03-01T02:38:52;17.42;;;13.68;;
39970;SDS011;35425;51.142;17.178;2023-03-01T02:41:19;16.77;;;14.30;;
39970;SDS011;35425;51.142;17.178;2023-03-01T02:43:46;17.23;;;14.02;;
39970;SDS011;35425;51.142;17.178;2023-03-01T02:46:17;17.52;;;13.85;;
39970;SDS011;35425;51.142;17.178;2023-03-01T02:48:45;16.60;;;13.23;;
39970;SDS011;35425;51.142;17.178;2023-03-01T02:56:39;17.02;;;13.70;;
39970;SDS011;35425;51.142;17.178;2023-03-01T02:59:05;16.75;;;13.45;;
39970;SDS011;35425;51.142;17.178;2023-03-01T03:01:32;16.08;;;12.82;;
39970;SDS011;35425;51.142;17.178;2023-03-01T03:06:31;17.00;;;13.45;;
39970;SDS011;35425;51.142;17.178;2023-03-01T03:08:58;15.95;;;12.93;;
39970;SDS011;35425;51.142;17.178;2023-03-01T03:11:25;15.43;;;12.30;;
39970;SDS011;35425;51.142;17.178;2023-03-01T03:13:51;16.70;;;13.35;;
39970;SDS011;35425;51.142;17.178;2023-03-01T03:16:18;14.82;;;12.90;;
39970;SDS011;35425;51.142;17.178;2023-03-01T03:18:45;15.48;;;12.60;;
39970;SDS011;35425;51.142;17.178;2023-03-01T03:21:12;15.00;;;12.30;;
39970;SDS011;35425;51.142;17.178;2023-03-01T03:23:39;17.25;;;13.02;;
39970;SDS011;35425;51.142;17.178;2023-03-01T03:26:05;16.35;;;12.45;;
39970;SDS011;35425;51.142;17.178;2023-03-01T03:28:32;15.15;;;12.40;;
39970;SDS011;35425;51.142;17.178;2023-03-01T03:30:58;15.88;;;12.82;;
39970;SDS011;35425;51.142;17.178;2023-03-01T03:33:30;14.63;;;12.45;;
39970;SDS011;35425;51.142;17.178;2023-03-01T03:35:56;14.25;;;12.48;;
39970;SDS011;35425;51.142;17.178;2023-03-01T03:38:23;17.10;;;12.60;;
39970;SDS011;35425;51.142;17.178;2023-03-01T03:40:59;15.30;;;12.07;;
39970;SDS011;35425;51.142;17.178;2023-03-01T03:43:29;16.35;;;12.30;;
39970;SDS011;35425;51.142;17.178;2023-03-01T03:45:56;14.32;;;12.45;;
39970;SDS011;35425;51.142;17.178;2023-03-01T03:48:26;17.60;;;11.93;;
39970;SDS011;35425;51.142;17.178;2023-03-01T03:50:54;14.73;;;12.25;;
39970;SDS011;35425;51.142;17.178;2023-03-01T03:53:21;15.52;;;12.40;;
39970;SDS011;35425;51.142;17.178;2023-03-01T03:55:48;15.40;;;12.30;;
39970;SDS011;35425;51.142;17.178;2023-03-01T03:58:18;15.55;;;12.80;;
39970;SDS011;35425;51.142;17.178;2023-03-01T04:00:46;15.55;;;12.63;;
39970;SDS011;35425;51.142;17.178;2023-03-01T04:03:14;15.18;;;12.50;;
39970;SDS011;35425;51.142;17.178;2023-03-01T04:05:41;15.98;;;12.98;;
39970;SDS011;35425;51.142;17.178;2023-03-01T04:08:07;16.42;;;13.30;;
39970;SDS011;35425;51.142;17.178;2023-03-01T04:10:36;15.82;;;12.43;;
39970;SDS011;35425;51.142;17.178;2023-03-01T04:13:04;16.05;;;13.02;;
39970;SDS011;35425;51.142;17.178;2023-03-01T04:15:30;14.50;;;12.55;;
39970;SDS011;35425;51.142;17.178;2023-03-01T04:17:58;15.35;;;12.65;;
39970;SDS011;35425;51.142;17.178;2023-03-01T04:20:26;16.27;;;12.85;;
39970;SDS011;35425;51.142;17.178;2023-03-01T04:22:58;15.70;;;12.05;;
39970;SDS011;35425;51.142;17.178;2023-03-01T04:25:25;14.02;;;12.25;;
39970;SDS011;35425;51.142;17.178;2023-03-01T04:27:51;15.75;;;12.68;;
39970;SDS011;35425;51.142;17.178;2023-03-01T04:30:18;16.80;;;12.70;;
39970;SDS011;35425;51.142;17.178;2023-03-01T04:32:44;14.98;;;12.60;;
39970;SDS011;35425;51.142;17.178;2023-03-01T04:35:11;14.77;;;12.00;;
39970;SDS011;35425;51.142;17.178;2023-03-01T04:37:37;16.58;;;13.13;;
39970;SDS011;35425;51.142;17.178;2023-03-01T04:40:04;16.35;;;12.63;;
39970;SDS011;35425;51.142;17.178;2023-03-01T04:42:42;14.50;;;12.27;;
39970;SDS011;35425;51.142;17.178;2023-03-01T04:45:09;15.63;;;13.05;;
39970;SDS011;35425;51.142;17.178;2023-03-01T04:47:42;16.17;;;12.50;;
39970;SDS011;35425;51.142;17.178;2023-03-01T04:50:10;15.10;;;12.27;;
39970;SDS011;35425;51.142;17.178;2023-03-01T04:52:37;15.07;;;12.50;;
39970;SDS011;35425;51.142;17.178;2023-03-01T04:55:04;15.57;;;12.25;;
39970;SDS011;35425;51.142;17.178;2023-03-01T04:57:31;15.75;;;12.82;;
39970;SDS011;35425;51.142;17.178;2023-03-01T04:59:57;12.93;;;11.30;;
39970;SDS011;35425;51.142;17.178;2023-03-01T05:02:23;14.85;;;11.23;;
39970;SDS011;35425;51.142;17.178;2023-03-01T05:04:50;14.85;;;12.55;;
39970;SDS011;35425;51.142;17.178;2023-03-01T05:07:17;16.67;;;12.52;;
39970;SDS011;35425;51.142;17.178;2023-03-01T05:09:46;14.40;;;12.25;;
39970;SDS011;35425;51.142;17.178;2023-03-01T05:12:13;14.07;;;11.35;;
39970;SDS011;35425;51.142;17.178;2023-03-01T05:14:40;14.32;;;11.70;;
39970;SDS011;35425;51.142;17.178;2023-03-01T05:17:06;14.25;;;11.52;;
39970;SDS011;35425;51.142;17.178;2023-03-01T05:19:33;13.82;;;11.88;;
39970;SDS011;35425;51.142;17.178;2023-03-01T05:21:59;12.57;;;11.07;;
39970;SDS011;35425;51.142;17.178;2023-03-01T05:26:59;14.23;;;11.65;;
39970;SDS011;35425;51.142;17.178;2023-03-01T05:29:26;13.38;;;11.57;;
39970;SDS011;35425;51.142;17.178;2023-03-01T05:31:53;14.65;;;11.70;;
39970;SDS011;35425;51.142;17.178;2023-03-01T05:34:24;12.65;;;11.10;;
39970;SDS011;35425;51.142;17.178;2023-03-01T05:36:54;12.38;;;11.05;;
39970;SDS011;35425;51.142;17.178;2023-03-01T05:39:21;12.85;;;11.18;;
39970;SDS011;35425;51.142;17.178;2023-03-01T05:41:51;12.82;;;10.70;;
39970;SDS011;35425;51.142;17.178;2023-03-01T05:44:18;14.82;;;11.73;;
39970;SDS011;35425;51.142;17.178;2023-03-01T05:46:44;13.25;;;11.23;;
39970;SDS011;35425;51.142;17.178;2023-03-01T05:49:11;14.80;;;11.52;;
39970;SDS011;35425;51.142;17.178;2023-03-01T05:51:40;13.95;;;11.23;;
39970;SDS011;35425;51.142;17.178;2023-03-01T05:54:07;12.80;;;10.63;;
39970;SDS011;35425;51.142;17.178;2023-03-01T05:56:34;12.50;;;10.25;;
39970;SDS011;35425;51.142;17.178;2023-03-01T05:59:01;12.85;;;10.90;;
39970;SDS011;35425;51.142;17.178;2023-03-01T06:01:28;12.65;;;10.27;;
39970;SDS011;35425;51.142;17.178;2023-03-01T06:03:55;13.48;;;10.20;;
39970;SDS011;35425;51.142;17.178;2023-03-01T06:06:23;12.23;;;10.40;;
39970;SDS011;35425;51.142;17.178;2023-03-01T06:08:50;12.50;;;10.38;;
39970;SDS011;35425;51.142;17.178;2023-03-01T06:11:16;13.20;;;10.85;;
39970;SDS011;35425;51.142;17.178;2023-03-01T06:13:43;12.13;;;10.02;;
39970;SDS011;35425;51.142;17.178;2023-03-01T06:16:10;12.95;;;10.55;;
39970;SDS011;35425;51.142;17.178;2023-03-01T06:18:37;13.80;;;10.63;;
39970;SDS011;35425;51.142;17.178;2023-03-01T06:21:04;13.55;;;11.05;;
39970;SDS011;35425;51.142;17.178;2023-03-01T06:23:31;11.52;;;10.32;;
39970;SDS011;35425;51.142;17.178;2023-03-01T06:25:58;12.80;;;10.82;;
39970;SDS011;35425;51.142;17.178;2023-03-01T06:28:24;15.13;;;11.35;;
39970;SDS011;35425;51.142;17.178;2023-03-01T06:30:50;12.45;;;10.52;;
39970;SDS011;35425;51.142;17.178;2023-03-01T06:33:18;13.00;;;10.60;;
39970;SDS011;35425;51.142;17.178;2023-03-01T06:35:46;12.35;;;10.15;;
39970;SDS011;35425;51.142;17.178;2023-03-01T06:38:13;14.45;;;11.57;;
39970;SDS011;35425;51.142;17.178;2023-03-01T06:40:44;14.40;;;11.80;;
39970;SDS011;35425;51.142;17.178;2023-03-01T06:43:11;14.23;;;11.50;;
39970;SDS011;35425;51.142;17.178;2023-03-01T06:45:38;14.48;;;11.15;;
39970;SDS011;35425;51.142;17.178;2023-03-01T06:48:05;14.55;;;10.90;;
39970;SDS011;35425;51.142;17.178;2023-03-01T06:50:32;13.30;;;10.85;;
39970;SDS011;35425;51.142;17.178;2023-03-01T06:52:59;13.38;;;10.15;;
39970;SDS011;35425;51.142;17.178;2023-03-01T06:55:26;12.80;;;10.68;;
39970;SDS011;35425;51.142;17.178;2023-03-01T06:57:55;13.40;;;10.80;;
39970;SDS011;35425;51.142;17.178;2023-03-01T07:00:22;12.57;;;10.48;;
39970;SDS011;35425;51.142;17.178;2023-03-01T07:02:49;13.52;;;10.50;;
39970;SDS011;35425;51.142;17.178;2023-03-01T07:05:16;15.15;;;11.60;;
39970;SDS011;35425;51.142;17.178;2023-03-01T07:07:42;13.93;;;11.00;;
39970;SDS011;35425;51.142;17.178;2023-03-01T07:10:09;13.57;;;11.50;;
39970;SDS011;35425;51.142;17.178;2023-03-01T07:12:35;13.52;;;10.68;;
39970;SDS011;35425;51.142;17.178;2023-03-01T07:15:02;13.50;;;10.85;;
39970;SDS011;35425;51.142;17.178;2023-03-01T07:17:29;14.60;;;10.50;;
39970;SDS011;35425;51.142;17.178;2023-03-01T07:19:56;13.68;;;9.98;;
39970;SDS011;35425;51.142;17.178;2023-03-01T07:22:25;13.55;;;10.88;;
39970;SDS011;35425;51.142;17.178;2023-03-01T07:24:52;14.63;;;11.32;;
39970;SDS011;35425;51.142;17.178;2023-03-01T07:27:18;14.00;;;10.65;;
39970;SDS011;35425;51.142;17.178;2023-03-01T07:29:45;15.23;;;11.50;;
39970;SDS011;35425;51.142;17.178;2023-03-01T07:32:11;14.10;;;10.70;;
39970;SDS011;35425;51.142;17.178;2023-03-01T07:34:38;14.98;;;11.55;;
39970;SDS011;35425;51.142;17.178;2023-03-01T07:37:04;14.23;;;11.10;;
39970;SDS011;35425;51.142;17.178;2023-03-01T07:39:31;14.57;;;11.65;;
39970;SDS011;35425;51.142;17.178;2023-03-01T07:41:57;14.30;;;11.32;;
39970;SDS011;35425;51.142;17.178;2023-03-01T07:44:24;13.98;;;10.75;;
39970;SDS011;35425;51.142;17.178;2023-03-01T07:46:50;12.82;;;10.25;;
39970;SDS011;35425;51.142;17.178;2023-03-01T07:49:18;14.88;;;11.07;;
39970;SDS011;35425;51.142;17.178;2023-03-01T07:51:45;14.75;;;10.40;;
39970;SDS011;35425;51.142;17.178;2023-03-01T07:54:11;13.25;;;10.23;;
39970;SDS011;35425;51.142;17.178;2023-03-01T07:56:37;12.73;;;9.55;;
39970;SDS011;35425;51.142;17.178;2023-03-01T07:59:04;13.80;;;10.20;;
39970;SDS011;35425;51.142;17.178;2023-03-01T08:01:30;12.98;;;10.02;;
39970;SDS011;35425;51.142;17.178;2023-03-01T08:03:57;13.85;;;10.50;;
39970;SDS011;35425;51.142;17.178;2023-03-01T08:06:23;14.32;;;10.38;;
39970;SDS011;35425;51.142;17.178;2023-03-01T08:08:50;14.23;;;10.25;;
39970;SDS011;35425;51.142;17.178;2023-03-01T08:11:16;14.18;;;10.20;;
39970;SDS011;35425;51.142;17.178;2023-03-01T08:13:43;12.90;;;9.82;;
39970;SDS011;35425;51.142;17.178;2023-03-01T08:16:11;13.75;;;10.45;;
39970;SDS011;35425;51.142;17.178;2023-03-01T08:18:41;12.63;;;9.82;;
39970;SDS011;35425;51.142;17.178;2023-03-01T08:21:09;12.75;;;9.48;;
39970;SDS011;35425;51.142;17.178;2023-03-01T08:23:35;12.52;;;9.45;;
39970;SDS011;35425;51.142;17.178;2023-03-01T08:26:06;11.60;;;8.98;;
39970;SDS011;35425;51.142;17.178;2023-03-01T08:28:33;12.65;;;9.77;;
39970;SDS011;35425;51.142;17.178;2023-03-01T08:31:00;12.77;;;10.00;;
39970;SDS011;35425;51.142;17.178;2023-03-01T08:33:26;12.63;;;9.60;;
39970;SDS011;35425;51.142;17.178;2023-03-01T08:36:01;10.43;;;9.10;;
39970;SDS011;35425;51.142;17.178;2023-03-01T08:38:27;11.82;;;9.65;;
39970;SDS011;35425;51.142;17.178;2023-03-01T08:40:54;12.18;;;9.35;;
39970;SDS011;35425;51.142;17.178;2023-03-01T08:43:20;11.68;;;9.07;;
39970;SDS011;35425;51.142;17.178;2023-03-01T08:45:48;11.98;;;9.82;;
39970;SDS011;35425;51.142;17.178;2023-03-01T08:48:14;11.23;;;9.25;;
39970;SDS011;35425;51.142;17.178;2023-03-01T08:50:41;12.02;;;9.23;;
39970;SDS011;35425;51.142;17.178;2023-03-01T08:53:07;12.88;;;9.93;;
39970;SDS011;35425;51.142;17.178;2023-03-01T08:55:34;11.68;;;9.50;;
39970;SDS011;35425;51.142;17.178;2023-03-01T08:58:00;13.05;;;9.60;;
39970;SDS011;35425;51.142;17.178;2023-03-01T09:00:27;11.77;;;9.23;;
39970;SDS011;35425;51.142;17.178;2023-03-01T09:02:54;10.88;;;9.68;;
39970;SDS011;35425;51.142;17.178;2023-03-01T09:05:20;10.70;;;9.25;;
39970;SDS011;35425;51.142;17.178;2023-03-01T09:07:47;11.13;;;9.48;;
39970;SDS011;35425;51.142;17.178;2023-03-01T09:10:13;12.98;;;9.65;;
39970;SDS011;35425;51.142;17.178;2023-03-01T09:12:39;11.95;;;9.90;;
39970;SDS011;35425;51.142;17.178;2023-03-01T09:15:06;11.23;;;9.60;;
39970;SDS011;35425;51.142;17.178;2023-03-01T09:17:33;11.05;;;8.63;;
39970;SDS011;35425;51.142;17.178;2023-03-01T09:19:59;10.90;;;9.05;;
39970;SDS011;35425;51.142;17.178;2023-03-01T09:22:25;12.10;;;9.50;;
39970;SDS011;35425;51.142;17.178;2023-03-01T09:24:52;9.82;;;8.80;;
39970;SDS011;35425;51.142;17.178;2023-03-01T09:27:18;11.07;;;8.75;;
39970;SDS011;35425;51.142;17.178;2023-03-01T09:29:45;10.20;;;8.68;;
39970;SDS011;35425;51.142;17.178;2023-03-01T09:32:12;9.63;;;8.18;;
39970;SDS011;35425;51.142;17.178;2023-03-01T09:34:38;10.00;;;8.43;;
39970;SDS011;35425;51.142;17.178;2023-03-01T09:37:26;9.27;;;7.90;;
39970;SDS011;35425;51.142;17.178;2023-03-01T09:39:52;8.95;;;7.93;;
39970;SDS011;35425;51.142;17.178;2023-03-01T09:42:19;10.02;;;7.80;;
39970;SDS011;35425;51.142;17.178;2023-03-01T09:44:48;9.15;;;7.50;;
39970;SDS011;35425;51.142;17.178;2023-03-01T09:49:43;8.95;;;7.43;;
39970;SDS011;35425;51.142;17.178;2023-03-01T09:52:23;8.85;;;7.30;;
39970;SDS011;35425;51.142;17.178;2023-03-01T09:54:52;9.15;;;7.00;;
39970;SDS011;35425;51.142;17.178;2023-03-01T09:57:24;8.93;;;7.28;;
39970;SDS011;35425;51.142;17.178;2023-03-01T10:09:43;8.57;;;6.72;;
39970;SDS011;35425;51.142;17.178;2023-03-01T10:12:15;8.10;;;6.82;;
39970;SDS011;35425;51.142;17.178;2023-03-01T10:14:57;8.07;;;6.60;;
39970;SDS011;35425;51.142;17.178;2023-03-01T10:19:51;7.03;;;6.30;;
39970;SDS011;35425;51.142;17.178;2023-03-01T10:22:19;7.50;;;6.43;;
39970;SDS011;35425;51.142;17.178;2023-03-01T10:24:52;7.75;;;6.45;;
39970;SDS011;35425;51.142;17.178;2023-03-01T10:27:21;7.38;;;6.55;;
39970;SDS011;35425;51.142;17.178;2023-03-01T10:30:02;7.57;;;6.18;;
39970;SDS011;35425;51.142;17.178;2023-03-01T10:34:58;6.20;;;5.43;;
39970;SDS011;35425;51.142;17.178;2023-03-01T10:37:25;6.38;;;5.50;;
39970;SDS011;35425;51.142;17.178;2023-03-01T10:42:25;6.75;;;4.82;;
39970;SDS011;35425;51.142;17.178;2023-03-01T10:44:52;7.57;;;4.38;;
39970;SDS011;35425;51.142;17.178;2023-03-01T10:47:26;7.00;;;4.25;;
39970;SDS011;35425;51.142;17.178;2023-03-01T10:50:00;5.65;;;3.92;;
39970;SDS011;35425;51.142;17.178;2023-03-01T10:52:37;7.22;;;3.92;;
39970;SDS011;35425;51.142;17.178;2023-03-01T10:55:17;5.88;;;4.00;;
39970;SDS011;35425;51.142;17.178;2023-03-01T10:57:49;5.18;;;3.75;;
39970;SDS011;35425;51.142;17.178;2023-03-01T11:03:01;6.03;;;4.15;;
39970;SDS011;35425;51.142;17.178;2023-03-01T11:05:28;4.65;;;3.72;;
39970;SDS011;35425;51.142;17.178;2023-03-01T11:07:57;5.18;;;3.70;;
39970;SDS011;35425;51.142;17.178;2023-03-01T11:10:28;4.72;;;3.60;;
39970;SDS011;35425;51.142;17.178;2023-03-01T11:13:14;5.30;;;3.85;;
39970;SDS011;35425;51.142;17.178;2023-03-01T11:15:41;4.97;;;3.90;;
39970;SDS011;35425;51.142;17.178;2023-03-01T11:18:18;4.15;;;3.75;;
39970;SDS011;35425;51.142;17.178;2023-03-01T11:20:45;5.85;;;4.15;;
39970;SDS011;35425;51.142;17.178;2023-03-01T11:23:12;4.25;;;3.47;;
39970;SDS011;35425;51.142;17.178;2023-03-01T11:25:41;4.78;;;4.28;;
39970;SDS011;35425;51.142;17.178;2023-03-01T11:28:10;4.50;;;3.70;;
39970;SDS011;35425;51.142;17.178;2023-03-01T11:30:39;5.18;;;4.13;;
39970;SDS011;35425;51.142;17.178;2023-03-01T11:33:13;5.03;;;3.75;;
39970;SDS011;35425;51.142;17.178;2023-03-01T11:35:47;6.78;;;3.60;;
39970;SDS011;35425;51.142;17.178;2023-03-01T11:38:26;4.57;;;3.72;;
39970;SDS011;35425;51.142;17.178;2023-03-01T11:46:02;5.28;;;3.88;;
39970;SDS011;35425;51.142;17.178;2023-03-01T11:48:44;4.95;;;3.70;;
39970;SDS011;35425;51.142;17.178;2023-03-01T11:51:23;5.05;;;3.70;;
39970;SDS011;35425;51.142;17.178;2023-03-01T11:56:38;4.80;;;4.03;;
39970;SDS011;35425;51.142;17.178;2023-03-01T12:10:02;4.22;;;3.80;;
39970;SDS011;35425;51.142;17.178;2023-03-01T12:13:17;4.43;;;3.70;;
39970;SDS011;35425;51.142;17.178;2023-03-01T12:15:33;4.35;;;3.70;;
39970;SDS011;35425;51.142;17.178;2023-03-01T12:20:43;5.03;;;3.90;;
39970;SDS011;35425;51.142;17.178;2023-03-01T12:23:38;4.25;;;3.60;;
39970;SDS011;35425;51.142;17.178;2023-03-01T12:26:10;3.97;;;3.38;;
39970;SDS011;35425;51.142;17.178;2023-03-01T12:28:46;4.22;;;3.47;;
39970;SDS011;35425;51.142;17.178;2023-03-01T12:36:58;4.35;;;3.40;;
39970;SDS011;35425;51.142;17.178;2023-03-01T12:44:35;4.88;;;3.58;;
39970;SDS011;35425;51.142;17.178;2023-03-01T12:47:11;4.22;;;3.47;;
39970;SDS011;35425;51.142;17.178;2023-03-01T12:49:41;3.53;;;3.20;;
39970;SDS011;35425;51.142;17.178;2023-03-01T12:52:14;4.50;;;3.42;;
39970;SDS011;35425;51.142;17.178;2023-03-01T12:54:42;4.10;;;3.20;;
39970;SDS011;35425;51.142;17.178;2023-03-01T12:57:12;3.92;;;3.53;;
39970;SDS011;35425;51.142;17.178;2023-03-01T13:02:23;3.65;;;3.13;;
39970;SDS011;35425;51.142;17.178;2023-03-01T13:07:34;3.58;;;3.22;;
39970;SDS011;35425;51.142;17.178;2023-03-01T13:17:51;3.50;;;3.20;;
39970;SDS011;35425;51.142;17.178;2023-03-01T13:20:19;3.55;;;3.20;;
39970;SDS011;35425;51.142;17.178;2023-03-01T13:22:46;4.65;;;3.65;;
39970;SDS011;35425;51.142;17.178;2023-03-01T13:25:20;4.03;;;3.38;;
39970;SDS011;35425;51.142;17.178;2023-03-01T13:27:50;5.00;;;3.15;;
39970;SDS011;35425;51.142;17.178;2023-03-01T13:33:46;4.22;;;3.20;;
39970;SDS011;35425;51.142;17.178;2023-03-01T13:35:56;3.30;;;2.83;;
39970;SDS011;35425;51.142;17.178;2023-03-01T13:41:09;3.35;;;2.80;;
39970;SDS011;35425;51.142;17.178;2023-03-01T13:43:39;3.97;;;3.40;;
39970;SDS011;35425;51.142;17.178;2023-03-01T13:48:37;3.70;;;2.83;;
39970;SDS011;35425;51.142;17.178;2023-03-01T13:51:08;3.60;;;2.80;;
39970;SDS011;35425;51.142;17.178;2023-03-01T13:53:38;3.72;;;3.00;;
39970;SDS011;35425;51.142;17.178;2023-03-01T13:56:07;3.40;;;3.10;;
39970;SDS011;35425;51.142;17.178;2023-03-01T13:58:44;5.38;;;3.28;;
39970;SDS011;35425;51.142;17.178;2023-03-01T14:01:25;3.70;;;2.70;;
39970;SDS011;35425;51.142;17.178;2023-03-01T14:03:52;3.90;;;2.85;;
39970;SDS011;35425;51.142;17.178;2023-03-01T14:06:20;3.10;;;2.78;;
39970;SDS011;35425;51.142;17.178;2023-03-01T14:08:48;3.72;;;2.88;;
39970;SDS011;35425;51.142;17.178;2023-03-01T14:16:30;3.00;;;2.70;;
39970;SDS011;35425;51.142;17.178;2023-03-01T14:19:18;3.15;;;2.85;;
39970;SDS011;35425;51.142;17.178;2023-03-01T14:22:12;3.53;;;3.00;;
39970;SDS011;35425;51.142;17.178;2023-03-01T14:24:44;3.42;;;3.00;;
39970;SDS011;35425;51.142;17.178;2023-03-01T14:27:12;4.30;;;2.80;;
39970;SDS011;35425;51.142;17.178;2023-03-01T14:29:40;3.70;;;2.97;;
39970;SDS011;35425;51.142;17.178;2023-03-01T14:32:10;3.78;;;3.00;;
39970;SDS011;35425;51.142;17.178;2023-03-01T14:34:41;3.72;;;2.78;;
39970;SDS011;35425;51.142;17.178;2023-03-01T14:37:16;3.47;;;3.10;;
39970;SDS011;35425;51.142;17.178;2023-03-01T14:39:43;3.15;;;2.60;;
39970;SDS011;35425;51.142;17.178;2023-03-01T14:42:10;3.22;;;2.88;;
39970;SDS011;35425;51.142;17.178;2023-03-01T14:44:42;3.60;;;2.30;;
39970;SDS011;35425;51.142;17.178;2023-03-01T14:47:11;3.10;;;2.38;;
39970;SDS011;35425;51.142;17.178;2023-03-01T14:49:38;3.85;;;2.80;;
39970;SDS011;35425;51.142;17.178;2023-03-01T14:52:05;3.42;;;3.13;;
39970;SDS011;35425;51.142;17.178;2023-03-01T14:56:59;3.33;;;3.00;;
39970;SDS011;35425;51.142;17.178;2023-03-01T14:59:26;3.90;;;2.80;;
39970;SDS011;35425;51.142;17.178;2023-03-01T15:01:53;2.75;;;2.45;;
39970;SDS011;35425;51.142;17.178;2023-03-01T15:04:20;3.00;;;2.80;;
39970;SDS011;35425;51.142;17.178;2023-03-01T15:06:50;2.97;;;2.65;;
39970;SDS011;35425;51.142;17.178;2023-03-01T15:09:16;3.78;;;2.90;;
39970;SDS011;35425;51.142;17.178;2023-03-01T15:11:43;3.17;;;2.60;;
39970;SDS011;35425;51.142;17.178;2023-03-01T15:14:38;3.10;;;2.63;;
39970;SDS011;35425;51.142;17.178;2023-03-01T15:17:15;3.70;;;2.80;;
39970;SDS011;35425;51.142;17.178;2023-03-01T15:19:46;4.03;;;2.80;;
39970;SDS011;35425;51.142;17.178;2023-03-01T15:22:16;3.00;;;2.70;;
39970;SDS011;35425;51.142;17.178;2023-03-01T15:24:47;2.80;;;2.60;;
39970;SDS011;35425;51.142;17.178;2023-03-01T15:27:14;2.88;;;2.65;;
39970;SDS011;35425;51.142;17.178;2023-03-01T15:29:41;3.47;;;2.70;;
39970;SDS011;35425;51.142;17.178;2023-03-01T15:34:49;2.95;;;2.58;;
39970;SDS011;35425;51.142;17.178;2023-03-01T15:40:01;3.28;;;2.53;;
39970;SDS011;35425;51.142;17.178;2023-03-01T15:45:09;3.13;;;2.83;;
39970;SDS011;35425;51.142;17.178;2023-03-01T15:47:36;3.60;;;2.72;;
39970;SDS011;35425;51.142;17.178;2023-03-01T15:50:05;3.15;;;2.50;;
39970;SDS011;35425;51.142;17.178;2023-03-01T15:52:36;3.50;;;2.92;;
39970;SDS011;35425;51.142;17.178;2023-03-01T15:55:06;2.97;;;2.58;;
39970;SDS011;35425;51.142;17.178;2023-03-01T15:57:33;4.40;;;3.10;;
39970;SDS011;35425;51.142;17.178;2023-03-01T15:59:59;3.13;;;2.83;;
39970;SDS011;35425;51.142;17.178;2023-03-01T16:02:26;3.20;;;2.72;;
39970;SDS011;35425;51.142;17.178;2023-03-01T16:04:52;2.85;;;2.65;;
39970;SDS011;35425;51.142;17.178;2023-03-01T16:07:20;3.63;;;2.88;;
39970;SDS011;35425;51.142;17.178;2023-03-01T16:09:46;3.10;;;2.80;;
39970;SDS011;35425;51.142;17.178;2023-03-01T16:12:13;2.92;;;2.60;;
39970;SDS011;35425;51.142;17.178;2023-03-01T16:14:40;3.15;;;2.70;;
39970;SDS011;35425;51.142;17.178;2023-03-01T16:17:07;4.03;;;2.80;;
39970;SDS011;35425;51.142;17.178;2023-03-01T16:19:37;3.20;;;2.88;;